Etusivu
METAR-TAF:

METAR-TAF

Lentoasemat :

Bessemer, Alabama, Yhdysvallat

Leveyspiiri: 33-18-45N, Pituuspiiri: 086-55-35W, korkeus merenpinnasta: 213 m

Tämänhetkinen sää

Tämä raportti tehtiin 33 minuuttia sitten, kello 15.56 UTC
Tuuli 8 kn etelästä/lounaasta
Lämpötila 17°C
Kosteus 88%
Ilmanpaine 1016 hPa
Näkyvyys: 16.1 km
Hajonneita pilviä 1500 ft:n korkeudessa
Pilvistä 2200 ft:n korkeudessa

METAR: KEKY 091556Z AUTO 20008KT 10SM BKN015 OVC022 17/15 A3000 RMK AO2 SLP007 T01720150

Aika: 10:29 (16:29 UTC)


TAF: puuttuu

Säähavainnot ja -ennusteet yli 4000 lentoasemalta (METAR- ja TAF-raportit).

Käytössä olevat sääasemat on merkitty karttaan keltaisilla ja punaisilla pisteillä.

Aseta hiiri pisteen päälle nähdäksesi sääaseman nimen.

Klikkaa sitten nähdäksesi säähavainnot ja -ennusteet.

Kartan vaihtaminen: klikkaa mustalla rastilla varustettuja vihreitä pisteitä, niin voit zoomata sisään; viivalla varustettua vihreää pistettä, niin voit zoomata ulos tai vihreitä nuolia, niin pääset viereisille kartoille.


METAR-TAF: